createdAt,value
2023-05-10T00:00:51.942Z,100190.72
2023-05-10T00:03:18.665Z,100197.63
2023-05-10T00:05:45.505Z,100193.84
2023-05-10T00:08:12.129Z,100192.69
2023-05-10T00:10:38.922Z,100194.56
2023-05-10T00:13:05.800Z,100187.84
2023-05-10T00:15:32.529Z,100195.44
2023-05-10T00:17:59.325Z,100183.25
2023-05-10T00:20:26.128Z,100200.25
2023-05-10T00:22:52.830Z,100188.69
2023-05-10T00:25:19.528Z,100181.25
2023-05-10T00:27:46.294Z,100185.84
2023-05-10T00:30:13.174Z,100184.72
2023-05-10T00:32:40.027Z,100187.84
2023-05-10T00:35:07.037Z,100184.72
2023-05-10T00:37:33.717Z,100186.41
2023-05-10T00:40:00.533Z,100183.88
2023-05-10T00:42:27.175Z,100183.53
2023-05-10T00:44:53.797Z,100182.44
2023-05-10T00:47:20.449Z,100181.34
2023-05-10T00:49:47.253Z,100184.47
2023-05-10T00:52:14.121Z,100183.81
2023-05-10T00:54:41.001Z,100181.97
2023-05-10T00:57:07.872Z,100180.84
2023-05-10T00:59:35.055Z,100188.75
2023-05-10T01:02:02.577Z,100183.81
2023-05-10T01:04:29.987Z,100181.66
2023-05-10T01:06:57.413Z,100184.44
2023-05-10T01:09:26.218Z,100181.91
2023-05-10T01:11:53.525Z,100183.03
2023-05-10T01:14:21.456Z,100185.03
2023-05-10T01:16:50.169Z,100177.75
2023-05-10T01:19:38.766Z,100187.84
2023-05-10T01:22:14.123Z,100187.13
2023-05-10T01:25:10.774Z,100183.56
2023-05-10T01:27:59.221Z,100178.31
2023-05-10T01:30:53.296Z,100180.44
2023-05-10T01:33:57.746Z,100174.63
2023-05-10T01:36:33.396Z,100177.94
2023-05-10T01:39:41.485Z,100179.81
2023-05-10T01:42:15.120Z,100178.66
2023-05-10T01:45:01.214Z,100174.38
2023-05-10T01:47:38.385Z,100168.41
2023-05-10T01:50:11.339Z,100168.25
2023-05-10T01:52:42.977Z,100167.44
2023-05-10T01:55:15.258Z,100167.94
2023-05-10T01:57:44.805Z,100171.06
2023-05-10T02:00:13.239Z,100173.91
2023-05-10T02:02:47.205Z,100171.44
2023-05-10T02:05:18.358Z,100170.78
2023-05-10T02:07:46.648Z,100167.34
2023-05-10T02:10:15.467Z,100170.81
2023-05-10T02:12:44.502Z,100169.13
2023-05-10T02:15:14.019Z,100159.09
2023-05-10T02:17:42.756Z,100172.78
2023-05-10T02:20:10.421Z,100163.84
2023-05-10T02:22:39.868Z,100157.78
2023-05-10T02:25:08.001Z,100157.94
2023-05-10T02:27:35.895Z,100145.56
2023-05-10T02:30:03.111Z,100156.59
2023-05-10T02:32:31.012Z,100156.75
2023-05-10T02:34:58.427Z,100154.47
2023-05-10T02:37:26.607Z,100146.72
2023-05-10T02:39:56.164Z,100158.44
2023-05-10T02:42:28.864Z,100161.22
2023-05-10T02:45:05.003Z,100152.00
2023-05-10T02:47:32.457Z,100151.16
2023-05-10T02:49:59.416Z,100145.88
2023-05-10T02:52:30.281Z,100157.78
2023-05-10T02:55:01.789Z,100149.50
2023-05-10T02:57:31.325Z,100149.84
2023-05-10T02:59:58.025Z,100150.69
2023-05-10T03:02:24.928Z,100154.63
2023-05-10T03:04:52.184Z,100161.41
2023-05-10T03:07:22.226Z,100163.72
2023-05-10T03:09:51.922Z,100162.44
2023-05-10T03:12:24.250Z,100164.72
2023-05-10T03:15:12.608Z,100160.06
2023-05-10T03:17:48.275Z,100168.47
2023-05-10T03:20:25.518Z,100169.50
2023-05-10T03:23:02.327Z,100175.28
2023-05-10T03:25:31.067Z,100161.25
2023-05-10T03:27:58.694Z,100171.00
2023-05-10T03:30:26.112Z,100152.84
2023-05-10T03:32:52.896Z,100166.88
2023-05-10T03:35:19.541Z,100175.28
2023-05-10T03:37:46.198Z,100174.81
2023-05-10T03:40:13.012Z,100178.91
2023-05-10T03:42:39.734Z,100175.41
2023-05-10T03:45:07.364Z,100189.44
2023-05-10T03:47:34.104Z,100179.66
2023-05-10T03:50:00.846Z,100193.63
2023-05-10T03:52:27.558Z,100194.09
2023-05-10T03:54:54.330Z,100205.47
2023-05-10T03:57:20.956Z,100189.34
2023-05-10T03:59:47.666Z,100205.81
2023-05-10T04:02:14.384Z,100205.81
2023-05-10T04:04:41.271Z,100206.84
2023-05-10T04:07:07.976Z,100199.63
2023-05-10T04:09:34.774Z,100209.78
2023-05-10T04:12:03.361Z,100197.06
2023-05-10T04:14:30.158Z,100205.94
2023-05-10T04:16:56.886Z,100202.28
2023-05-10T04:19:23.674Z,100208.03
2023-05-10T04:21:50.377Z,100199.47
2023-05-10T04:24:17.179Z,100205.72
2023-05-10T04:26:43.846Z,100210.31
2023-05-10T04:29:10.638Z,100205.09
2023-05-10T04:31:37.430Z,100201.03
2023-05-10T04:34:04.161Z,100201.97
2023-05-10T04:36:30.889Z,100204.84
2023-05-10T04:38:57.996Z,100201.94
2023-05-10T04:41:25.864Z,100200.13
2023-05-10T04:43:52.611Z,100202.28
2023-05-10T04:46:19.372Z,100202.69
2023-05-10T04:48:46.160Z,100210.94
2023-05-10T04:51:13.280Z,100214.22
2023-05-10T04:53:40.046Z,100211.97
2023-05-10T04:56:07.120Z,100211.13
2023-05-10T04:58:34.469Z,100218.19
2023-05-10T05:01:08.939Z,100215.84
2023-05-10T05:03:35.747Z,100212.09
2023-05-10T05:06:02.538Z,100222.19
2023-05-10T05:08:29.160Z,100230.34
2023-05-10T05:10:55.945Z,100236.19
2023-05-10T05:13:22.712Z,100227.50
2023-05-10T05:15:49.556Z,100221.81
2023-05-10T05:18:16.230Z,100226.56
2023-05-10T05:20:42.919Z,100220.25
2023-05-10T05:23:09.585Z,100227.88
2023-05-10T05:25:36.697Z,100231.75
2023-05-10T05:28:03.320Z,100223.06
2023-05-10T05:30:29.989Z,100221.53
2023-05-10T05:32:56.712Z,100231.81
2023-05-10T05:35:23.405Z,100222.06
2023-05-10T05:37:50.082Z,100224.47
2023-05-10T05:40:16.778Z,100232.47
2023-05-10T05:42:43.515Z,100235.66
2023-05-10T05:45:14.123Z,100245.88
2023-05-10T05:47:41.170Z,100249.94
2023-05-10T05:50:08.404Z,100260.50
2023-05-10T05:52:35.229Z,100269.63
2023-05-10T05:55:01.986Z,100269.78
2023-05-10T05:57:28.751Z,100270.38
2023-05-10T05:59:55.457Z,100268.16
2023-05-10T06:02:22.299Z,100273.09
2023-05-10T06:04:49.061Z,100275.09
2023-05-10T06:07:15.786Z,100268.56
2023-05-10T06:09:42.450Z,100277.16
2023-05-10T06:12:09.067Z,100265.09
2023-05-10T06:14:35.850Z,100281.22
2023-05-10T06:17:05.130Z,100284.13
2023-05-10T06:19:32.093Z,100284.59
2023-05-10T06:21:58.740Z,100283.97
2023-05-10T06:24:25.421Z,100288.56
2023-05-10T06:26:52.079Z,100293.41
2023-05-10T06:29:18.773Z,100282.75
2023-05-10T06:31:45.438Z,100294.69
2023-05-10T06:34:12.764Z,100306.03
2023-05-10T06:36:39.573Z,100308.00
2023-05-10T06:39:06.776Z,100309.25
2023-05-10T06:41:33.423Z,100308.22
2023-05-10T06:44:00.237Z,100261.94
2023-05-10T06:46:26.947Z,100291.78
2023-05-10T06:48:53.739Z,100300.41
2023-05-10T06:51:22.350Z,100300.88
2023-05-10T06:53:49.351Z,100304.16
2023-05-10T06:56:16.129Z,100304.38
2023-05-10T06:58:42.835Z,100294.91
2023-05-10T07:01:09.997Z,100324.22
2023-05-10T07:03:36.829Z,100317.13
2023-05-10T07:06:04.976Z,100319.59
2023-05-10T07:08:35.531Z,100318.00
2023-05-10T07:11:06.468Z,100310.97
2023-05-10T07:13:33.477Z,100308.25
2023-05-10T07:16:01.604Z,100309.06
2023-05-10T07:18:28.548Z,100319.16
2023-05-10T07:20:55.474Z,100316.13
2023-05-10T07:23:22.338Z,100306.25
2023-05-10T07:25:49.992Z,100315.13
2023-05-10T07:28:17.406Z,100305.88
2023-05-10T07:30:44.604Z,100303.41
2023-05-10T07:33:13.693Z,100314.94
2023-05-10T07:35:40.558Z,100316.66
2023-05-10T07:38:07.220Z,100305.75
2023-05-10T07:40:34.045Z,100310.91
2023-05-10T07:43:03.754Z,100292.63
2023-05-10T07:45:30.467Z,100304.28
2023-05-10T07:47:57.438Z,100301.84
2023-05-10T07:50:24.116Z,100288.09
2023-05-10T07:52:50.936Z,100300.00
2023-05-10T07:55:20.229Z,100303.47
2023-05-10T07:57:46.849Z,100296.50
2023-05-10T08:00:14.751Z,100297.72
2023-05-10T08:02:42.325Z,100296.66
2023-05-10T08:05:09.215Z,100301.84
2023-05-10T08:07:36.444Z,100296.91
2023-05-10T08:10:04.652Z,100291.97
2023-05-10T08:12:31.489Z,100306.16
2023-05-10T08:14:58.309Z,100308.19
2023-05-10T08:17:25.099Z,100323.16
2023-05-10T08:19:51.749Z,100330.16
2023-05-10T08:22:18.413Z,100322.72
2023-05-10T08:24:45.149Z,100326.38
2023-05-10T08:27:12.046Z,100319.56
2023-05-10T08:29:48.884Z,100318.88
2023-05-10T08:32:16.717Z,100320.41
2023-05-10T08:34:43.384Z,100320.91
2023-05-10T08:37:11.781Z,100329.59
2023-05-10T08:39:38.532Z,100320.78
2023-05-10T08:42:06.435Z,100327.38
2023-05-10T08:44:35.356Z,100320.59
2023-05-10T08:50:01.564Z,100314.00
2023-05-10T08:52:31.154Z,100319.81
2023-05-10T08:54:58.182Z,100316.22
2023-05-10T08:57:25.147Z,100325.97
2023-05-10T08:59:52.233Z,100331.69
2023-05-10T09:02:20.364Z,100329.25
2023-05-10T09:04:47.235Z,100329.31
2023-05-10T09:07:14.844Z,100337.09
2023-05-10T09:09:41.763Z,100336.28
2023-05-10T09:12:12.224Z,100332.06
2023-05-10T09:14:39.661Z,100317.34
2023-05-10T09:17:06.611Z,100322.00
2023-05-10T09:19:33.432Z,100325.63
2023-05-10T09:22:01.374Z,100327.03
2023-05-10T09:24:28.234Z,100319.16
2023-05-10T09:26:54.891Z,100316.00
2023-05-10T09:29:21.639Z,100325.47
2023-05-10T09:31:53.166Z,100310.03
2023-05-10T09:34:21.545Z,100323.81
2023-05-10T09:36:53.017Z,100325.22
2023-05-10T09:39:19.839Z,100327.88
2023-05-10T09:41:46.873Z,100317.94
2023-05-10T09:44:19.671Z,100322.97
2023-05-10T09:46:51.058Z,100324.59
2023-05-10T09:49:17.966Z,100327.81
2023-05-10T09:51:44.664Z,100329.59
2023-05-10T09:54:20.450Z,100317.28
2023-05-10T09:56:47.163Z,100314.22
2023-05-10T09:59:14.129Z,100325.41
2023-05-10T10:01:41.706Z,100311.44
2023-05-10T10:04:10.861Z,100315.22
2023-05-10T10:06:39.323Z,100307.13
2023-05-10T10:09:09.973Z,100314.88
2023-05-10T10:11:38.214Z,100309.00
2023-05-10T10:14:05.783Z,100303.34
2023-05-10T10:16:33.196Z,100296.25
2023-05-10T10:19:00.071Z,100302.81
2023-05-10T10:21:27.215Z,100300.00
2023-05-10T10:23:54.159Z,100296.41
2023-05-10T10:26:22.154Z,100297.81
2023-05-10T10:29:04.091Z,100289.19
2023-05-10T10:31:40.311Z,100291.06
2023-05-10T10:34:08.177Z,100289.88
2023-05-10T10:36:43.380Z,100300.41
2023-05-10T10:39:11.731Z,100298.50
2023-05-10T10:41:44.073Z,100295.31
2023-05-10T10:44:23.397Z,100294.97
2023-05-10T10:47:03.582Z,100301.63
2023-05-10T10:49:37.059Z,100302.22
2023-05-10T10:52:34.312Z,100318.84
2023-05-10T10:55:10.415Z,100287.94
2023-05-10T10:57:48.883Z,100286.41
2023-05-10T11:00:19.263Z,100299.56
2023-05-10T11:02:49.194Z,100234.19
2023-05-10T11:05:26.247Z,100298.28
2023-05-10T11:07:57.542Z,100285.09
2023-05-10T11:10:25.685Z,100280.78
2023-05-10T11:13:02.108Z,100294.13
2023-05-10T11:15:36.983Z,100298.59
2023-05-10T11:18:24.775Z,100277.97
2023-05-10T11:20:53.305Z,100279.13
2023-05-10T11:23:21.140Z,100285.59
2023-05-10T11:25:49.575Z,100267.59
2023-05-10T11:28:18.713Z,100273.88
2023-05-10T11:30:46.372Z,100274.31
2023-05-10T11:33:18.206Z,100278.09
2023-05-10T11:35:45.059Z,100280.59
2023-05-10T11:38:13.460Z,100284.47
2023-05-10T11:40:42.857Z,100274.19
2023-05-10T11:43:11.683Z,100270.16
2023-05-10T11:45:39.121Z,100274.94
2023-05-10T11:48:06.228Z,100258.53
2023-05-10T11:50:33.707Z,100267.78
2023-05-10T11:53:00.481Z,100263.34
2023-05-10T11:55:27.178Z,100258.97
2023-05-10T11:57:55.169Z,100255.69
2023-05-10T12:00:22.442Z,100264.69
2023-05-10T12:02:50.175Z,100270.81
2023-05-10T12:05:17.660Z,100265.94
2023-05-10T12:07:44.548Z,100240.63
2023-05-10T12:10:16.503Z,100260.00
2023-05-10T12:12:51.207Z,100251.63
2023-05-10T12:15:25.855Z,100243.50
2023-05-10T12:17:52.769Z,100242.78
2023-05-10T12:20:24.901Z,100247.75
2023-05-10T12:22:53.632Z,100241.94
2023-05-10T12:25:21.395Z,100251.97
2023-05-10T12:27:56.933Z,100235.06
2023-05-10T12:30:25.408Z,100253.88
2023-05-10T12:32:53.700Z,100239.72
2023-05-10T12:35:23.135Z,100235.84
2023-05-10T12:37:49.827Z,100231.63
2023-05-10T12:40:16.728Z,100229.31
2023-05-10T12:42:45.938Z,100238.28
2023-05-10T12:45:12.947Z,100217.72
2023-05-10T12:47:43.091Z,100233.63
2023-05-10T12:50:11.012Z,100225.44
2023-05-10T12:52:38.194Z,100227.19
2023-05-10T12:55:05.542Z,100213.53
2023-05-10T12:57:32.210Z,100205.59
2023-05-10T12:59:58.885Z,100204.47
2023-05-10T13:02:25.588Z,100206.09
2023-05-10T13:04:52.442Z,100216.94
2023-05-10T13:07:19.184Z,100209.06
2023-05-10T13:09:45.850Z,100217.16
2023-05-10T13:12:12.698Z,100210.47
2023-05-10T13:14:41.375Z,100217.06
2023-05-10T13:17:08.274Z,100198.91
2023-05-10T13:19:35.057Z,100204.16
2023-05-10T13:22:01.706Z,100194.78
2023-05-10T13:24:28.457Z,100196.25
2023-05-10T13:26:56.092Z,100201.09
2023-05-10T13:29:23.554Z,100200.78
2023-05-10T13:31:50.397Z,100199.34
2023-05-10T13:34:17.254Z,100193.75
2023-05-10T13:36:43.966Z,100184.06
2023-05-10T13:39:10.649Z,100162.44
2023-05-10T13:41:37.917Z,100185.38
2023-05-10T13:44:04.745Z,100176.69
2023-05-10T13:46:32.053Z,100180.31
2023-05-10T13:48:58.869Z,100180.72
2023-05-10T13:51:25.571Z,100172.66
2023-05-10T13:53:53.140Z,100176.09
2023-05-10T13:56:39.471Z,100168.63
2023-05-10T13:59:06.097Z,100178.25
2023-05-10T14:01:33.079Z,100170.88
2023-05-10T14:03:59.910Z,100183.16
2023-05-10T14:06:28.684Z,100175.81
2023-05-10T14:08:55.369Z,100175.91
2023-05-10T14:11:23.926Z,100173.63
2023-05-10T14:13:51.288Z,100179.16
2023-05-10T14:16:18.013Z,100180.38
2023-05-10T14:18:44.787Z,100172.69
2023-05-10T14:21:11.448Z,100168.25
2023-05-10T14:23:38.140Z,100176.94
2023-05-10T14:26:05.052Z,100174.81
2023-05-10T14:28:32.088Z,100167.66
2023-05-10T14:30:59.033Z,100163.22
2023-05-10T14:33:26.079Z,100165.25
2023-05-10T14:35:53.262Z,100163.03
2023-05-10T14:38:19.896Z,100171.91
2023-05-10T14:40:46.570Z,100171.16
2023-05-10T14:43:13.451Z,100177.41
2023-05-10T14:45:40.136Z,100153.19
2023-05-10T14:48:06.966Z,100171.94
2023-05-10T14:50:36.862Z,100164.94
2023-05-10T14:53:37.848Z,100176.91
2023-05-10T14:56:04.690Z,100174.31
2023-05-10T14:58:33.956Z,100173.53
2023-05-10T15:01:01.208Z,100165.50
2023-05-10T15:03:28.461Z,100165.13
2023-05-10T15:05:57.178Z,100170.94
2023-05-10T15:08:24.818Z,100164.50
2023-05-10T15:10:52.334Z,100183.31
2023-05-10T15:13:19.030Z,100171.31
2023-05-10T15:15:45.748Z,100186.34
2023-05-10T15:18:12.704Z,100169.56
2023-05-10T15:20:39.697Z,100170.28
2023-05-10T15:23:06.504Z,100181.44
2023-05-10T15:25:35.885Z,100182.78
2023-05-10T15:28:03.771Z,100185.47
2023-05-10T15:30:30.628Z,100183.00
2023-05-10T15:32:57.743Z,100188.19
2023-05-10T15:35:24.458Z,100183.44
2023-05-10T15:37:51.427Z,100199.50
2023-05-10T15:40:18.270Z,100205.88
2023-05-10T15:42:44.959Z,100191.25
2023-05-10T15:45:12.253Z,100191.25
2023-05-10T15:47:40.647Z,100184.06
2023-05-10T15:50:08.549Z,100195.44
2023-05-10T15:52:36.232Z,100183.50
2023-05-10T15:55:04.152Z,100200.25
2023-05-10T15:57:31.014Z,100198.81
2023-05-10T15:59:58.384Z,100202.72
2023-05-10T16:02:25.138Z,100201.91
2023-05-10T16:04:51.886Z,100199.06
2023-05-10T16:07:18.655Z,100196.59
2023-05-10T16:09:45.396Z,100196.78
2023-05-10T16:12:12.056Z,100196.59
2023-05-10T16:14:38.760Z,100197.06
2023-05-10T16:17:05.893Z,100208.22
2023-05-10T16:19:32.577Z,100202.84
2023-05-10T16:21:59.446Z,100198.34
2023-05-10T16:24:26.418Z,100195.03
2023-05-10T16:26:53.359Z,100211.28
2023-05-10T16:29:20.383Z,100219.69
2023-05-10T16:31:47.073Z,100206.97
2023-05-10T16:34:14.162Z,100222.78
2023-05-10T16:36:41.233Z,100215.19
2023-05-10T16:39:09.451Z,100229.34
2023-05-10T16:41:36.099Z,100233.66
2023-05-10T16:44:04.013Z,100230.38
2023-05-10T16:46:30.749Z,100239.41
2023-05-10T16:48:59.817Z,100223.81
2023-05-10T16:51:27.341Z,100231.81
2023-05-10T16:53:54.083Z,100230.78
2023-05-10T16:56:22.296Z,100230.13
2023-05-10T16:58:51.812Z,100239.56
2023-05-10T17:01:18.596Z,100242.63
2023-05-10T17:03:45.454Z,100240.16
2023-05-10T17:06:12.444Z,100248.09
2023-05-10T17:08:39.110Z,100246.22
2023-05-10T17:11:06.082Z,100249.09
2023-05-10T17:13:32.759Z,100253.16
2023-05-10T17:16:03.586Z,100240.25
2023-05-10T17:18:30.710Z,100246.88
2023-05-10T17:20:57.443Z,100233.28
2023-05-10T17:23:24.133Z,100239.84
2023-05-10T17:25:51.049Z,100256.78
2023-05-10T17:28:17.756Z,100264.78
2023-05-10T17:30:44.569Z,100249.72
2023-05-10T17:33:11.473Z,100240.88
2023-05-10T17:35:38.166Z,100268.28
2023-05-10T17:38:04.861Z,100266.38
2023-05-10T17:40:32.187Z,100265.34
2023-05-10T17:43:02.833Z,100263.06
2023-05-10T17:45:29.630Z,100249.59
2023-05-10T17:47:56.366Z,100269.53
2023-05-10T17:50:23.128Z,100252.75
2023-05-10T17:52:49.722Z,100247.00
2023-05-10T17:55:16.795Z,100255.66
2023-05-10T17:57:43.696Z,100248.47
2023-05-10T18:00:11.070Z,100247.19
2023-05-10T18:02:37.974Z,100239.28
2023-05-10T18:05:05.487Z,100242.34
2023-05-10T18:07:32.485Z,100253.78
2023-05-10T18:09:59.236Z,100260.56
2023-05-10T18:12:26.123Z,100269.59
2023-05-10T18:14:52.797Z,100260.78
2023-05-10T18:17:19.554Z,100277.09
2023-05-10T18:19:46.222Z,100283.31
2023-05-10T18:22:13.042Z,100298.06
2023-05-10T18:24:40.328Z,100295.69
2023-05-10T18:27:14.978Z,100303.72
2023-05-10T18:29:42.345Z,100299.06
2023-05-10T18:32:09.038Z,100317.97
2023-05-10T18:34:35.888Z,100303.94
2023-05-10T18:37:07.453Z,100293.94
2023-05-10T18:39:34.531Z,100298.81
2023-05-10T18:42:01.496Z,100300.53
2023-05-10T18:44:29.049Z,100300.25
2023-05-10T18:46:55.976Z,100276.91
2023-05-10T18:49:23.004Z,100316.38
2023-05-10T18:51:49.704Z,100287.53
2023-05-10T18:54:17.105Z,100321.53
2023-05-10T18:56:45.379Z,100308.31
2023-05-10T18:59:12.340Z,100323.97
2023-05-10T19:01:41.102Z,100323.97
2023-05-10T19:04:08.998Z,100324.56
2023-05-10T19:06:36.211Z,100330.31
2023-05-10T19:09:03.230Z,100333.72
2023-05-10T19:11:32.335Z,100321.00
2023-05-10T19:13:59.070Z,100323.94
2023-05-10T19:16:29.015Z,100317.06
2023-05-10T19:18:57.697Z,100310.00
2023-05-10T19:21:24.432Z,100330.31
2023-05-10T19:23:51.194Z,100322.59
2023-05-10T19:26:18.426Z,100325.09
2023-05-10T19:28:45.310Z,100320.00
2023-05-10T19:31:11.937Z,100333.16
2023-05-10T19:33:39.111Z,100319.00
2023-05-10T19:36:05.935Z,100301.88
2023-05-10T19:38:34.525Z,100324.66
2023-05-10T19:41:01.435Z,100320.66
2023-05-10T19:43:30.330Z,100321.50
2023-05-10T19:45:59.432Z,100317.00
2023-05-10T19:48:26.854Z,100309.47
2023-05-10T19:50:54.906Z,100313.78
2023-05-10T19:53:21.581Z,100318.06
2023-05-10T19:55:48.538Z,100313.94
2023-05-10T19:58:15.195Z,100320.06
2023-05-10T20:00:41.924Z,100318.91
2023-05-10T20:03:09.395Z,100318.97
2023-05-10T20:05:36.240Z,100307.59
2023-05-10T20:08:02.886Z,100308.94
2023-05-10T20:10:29.864Z,100299.69
2023-05-10T20:12:56.494Z,100301.22
2023-05-10T20:15:23.642Z,100302.56
2023-05-10T20:17:52.892Z,100301.47
2023-05-10T20:20:20.742Z,100295.41
2023-05-10T20:22:48.603Z,100299.44
2023-05-10T20:25:16.807Z,100290.31
2023-05-10T20:27:43.634Z,100270.47
2023-05-10T20:30:10.800Z,100284.50
2023-05-10T20:32:38.201Z,100291.09
2023-05-10T20:35:05.720Z,100286.44
2023-05-10T20:37:32.574Z,100293.03
2023-05-10T20:39:59.353Z,100284.63
2023-05-10T20:42:26.059Z,100278.69
2023-05-10T20:44:52.725Z,100285.22
2023-05-10T20:47:19.685Z,100283.22
2023-05-10T20:49:46.570Z,100290.31
2023-05-10T20:52:13.295Z,100287.16
2023-05-10T20:54:40.020Z,100283.69
2023-05-10T20:57:06.786Z,100282.00
2023-05-10T20:59:33.892Z,100270.41
2023-05-10T21:02:00.797Z,100279.91
2023-05-10T21:04:27.658Z,100281.66
2023-05-10T21:06:55.720Z,100274.41
2023-05-10T21:09:22.616Z,100269.59
2023-05-10T21:11:50.454Z,100260.47
2023-05-10T21:14:17.185Z,100271.66
2023-05-10T21:16:43.926Z,100241.47
2023-05-10T21:19:11.410Z,100272.59
2023-05-10T21:21:38.060Z,100275.72
2023-05-10T21:24:05.042Z,100279.69
2023-05-10T21:26:31.663Z,100267.03
2023-05-10T21:28:59.397Z,100273.38
2023-05-10T21:31:26.220Z,100279.53
2023-05-10T21:33:52.944Z,100282.47
2023-05-10T21:38:46.814Z,100282.59
2023-05-10T21:41:13.500Z,100277.38
2023-05-10T21:43:40.116Z,100283.03
2023-05-10T21:46:07.522Z,100278.81
2023-05-10T21:48:34.209Z,100276.56
2023-05-10T21:51:01.727Z,100264.69
2023-05-10T21:53:28.870Z,100274.88
2023-05-10T21:55:56.394Z,100260.44
2023-05-10T21:58:23.565Z,100264.78
2023-05-10T22:00:50.257Z,100266.91
2023-05-10T22:03:18.059Z,100261.72
2023-05-10T22:05:44.815Z,100256.16
2023-05-10T22:08:11.482Z,100251.22
2023-05-10T22:10:38.180Z,100246.44
2023-05-10T22:13:04.807Z,100233.06
2023-05-10T22:15:34.182Z,100234.72
2023-05-10T22:18:02.443Z,100223.53
2023-05-10T22:20:29.287Z,100215.59
2023-05-10T22:22:56.169Z,100226.69
2023-05-10T22:25:22.934Z,100224.56
2023-05-10T22:27:49.561Z,100225.91
2023-05-10T22:30:16.619Z,100227.88
2023-05-10T22:32:43.757Z,100188.56
2023-05-10T22:35:10.488Z,100223.56
2023-05-10T22:37:37.318Z,100219.56
2023-05-10T22:40:04.334Z,100218.03
2023-05-10T22:42:31.031Z,100212.97
2023-05-10T22:44:58.820Z,100215.09
2023-05-10T22:47:25.734Z,100220.41
2023-05-10T22:49:52.456Z,100221.94
2023-05-10T22:52:19.154Z,100225.81
2023-05-10T22:54:45.851Z,100180.50
2023-05-10T22:57:12.799Z,100227.50
2023-05-10T22:59:39.429Z,100226.16
2023-05-10T23:02:06.183Z,100224.97
2023-05-10T23:04:32.904Z,100232.72
2023-05-10T23:06:59.677Z,100226.59
2023-05-10T23:09:26.293Z,100229.16
2023-05-10T23:11:52.969Z,100229.41
2023-05-10T23:14:19.611Z,100229.72
2023-05-10T23:16:46.326Z,100211.28
2023-05-10T23:19:13.009Z,100219.06
2023-05-10T23:21:39.678Z,100198.44
2023-05-10T23:24:08.677Z,100205.03
2023-05-10T23:26:35.492Z,100212.78
2023-05-10T23:29:02.491Z,100207.00
2023-05-10T23:31:29.233Z,100211.44
2023-05-10T23:33:56.270Z,100208.38
2023-05-10T23:36:23.000Z,100215.22
2023-05-10T23:38:49.644Z,100212.41
2023-05-10T23:41:16.287Z,100221.94
2023-05-10T23:43:42.956Z,100216.91
2023-05-10T23:46:09.601Z,100214.16
2023-05-10T23:48:36.273Z,100206.94
2023-05-10T23:51:03.713Z,100207.78
2023-05-10T23:53:30.682Z,100210.13
2023-05-10T23:55:57.498Z,100210.81
2023-05-10T23:58:24.270Z,100212.78
